Kiamika, Canada
Current Conditions -  °F | °C
As of 10:12 AM on Monday 24 Nov 2014 (Local Time) from CYND Reporting Station
Haze Haze  
Wind Chill:   Ceiling: 400
Heat Index:   Visibility: 3mi
Dew Point:   Wind: 6mph
Humidity: 100%   Direction: 60°ENE
Pressure: 29.31"   Gusts: NA
Location:  46.42°N, 75.37°W
Report Text: CYND 241512Z 06005KT 3SM BR OVC004 08/08 A2931 RMK SF8 SLP926
Loading
Personal Weather Stations






























Interactive Weather Map New forecast layout! Learn more

10-Day Weather Forecast

Advertisements
Track Severe Weather on mobile